sensor_id;sensor_type;location;lat;lon;timestamp;temperature;humidity
73939;DHT22;62291;47.554;8.504;2023-06-24T00:01:25;14.30;99.90
73939;DHT22;62291;47.554;8.504;2023-06-24T00:03:51;14.30;99.90
73939;DHT22;62291;47.554;8.504;2023-06-24T00:06:19;14.30;99.90
73939;DHT22;62291;47.554;8.504;2023-06-24T00:08:46;14.20;99.90
73939;DHT22;62291;47.554;8.504;2023-06-24T00:11:12;14.30;99.90
73939;DHT22;62291;47.554;8.504;2023-06-24T00:13:39;14.30;99.90
73939;DHT22;62291;47.554;8.504;2023-06-24T00:16:05;14.30;99.90
73939;DHT22;62291;47.554;8.504;2023-06-24T00:18:34;14.40;99.90
73939;DHT22;62291;47.554;8.504;2023-06-24T00:21:00;14.30;99.90
73939;DHT22;62291;47.554;8.504;2023-06-24T00:23:30;14.30;99.90
73939;DHT22;62291;47.554;8.504;2023-06-24T00:25:59;14.30;99.90
73939;DHT22;62291;47.554;8.504;2023-06-24T00:28:25;14.20;99.90
73939;DHT22;62291;47.554;8.504;2023-06-24T00:30:51;14.20;99.90
73939;DHT22;62291;47.554;8.504;2023-06-24T00:33:16;14.20;99.90
73939;DHT22;62291;47.554;8.504;2023-06-24T00:35:44;14.20;99.90
73939;DHT22;62291;47.554;8.504;2023-06-24T00:38:10;14.30;99.90
73939;DHT22;62291;47.554;8.504;2023-06-24T00:40:37;14.30;99.90
73939;DHT22;62291;47.554;8.504;2023-06-24T00:43:05;14.40;99.90
73939;DHT22;62291;47.554;8.504;2023-06-24T00:45:31;14.50;99.90
73939;DHT22;62291;47.554;8.504;2023-06-24T00:48:00;14.60;99.90
73939;DHT22;62291;47.554;8.504;2023-06-24T00:50:26;14.60;99.90
73939;DHT22;62291;47.554;8.504;2023-06-24T00:52:52;14.60;99.90
73939;DHT22;62291;47.554;8.504;2023-06-24T00:55:18;14.60;99.90
73939;DHT22;62291;47.554;8.504;2023-06-24T00:57:48;14.60;99.90
73939;DHT22;62291;47.554;8.504;2023-06-24T01:00:18;14.60;99.90
73939;DHT22;62291;47.554;8.504;2023-06-24T01:02:47;14.60;99.90
73939;DHT22;62291;47.554;8.504;2023-06-24T01:05:13;14.70;99.90
73939;DHT22;62291;47.554;8.504;2023-06-24T01:07:41;14.70;99.90
73939;DHT22;62291;47.554;8.504;2023-06-24T01:10:08;14.80;99.90
73939;DHT22;62291;47.554;8.504;2023-06-24T01:12:35;14.90;99.90
73939;DHT22;62291;47.554;8.504;2023-06-24T01:15:02;14.90;99.90
73939;DHT22;62291;47.554;8.504;2023-06-24T01:17:37;14.80;99.90
73939;DHT22;62291;47.554;8.504;2023-06-24T01:20:10;14.80;99.90
73939;DHT22;62291;47.554;8.504;2023-06-24T01:22:43;14.70;99.90
73939;DHT22;62291;47.554;8.504;2023-06-24T01:25:44;14.60;99.90
73939;DHT22;62291;47.554;8.504;2023-06-24T01:33:41;14.60;99.90
73939;DHT22;62291;47.554;8.504;2023-06-24T01:36:12;14.90;99.90
73939;DHT22;62291;47.554;8.504;2023-06-24T01:39:02;15.00;99.90
73939;DHT22;62291;47.554;8.504;2023-06-24T01:41:36;15.00;99.90
73939;DHT22;62291;47.554;8.504;2023-06-24T01:44:04;15.10;99.90
73939;DHT22;62291;47.554;8.504;2023-06-24T01:46:31;15.10;99.90
73939;DHT22;62291;47.554;8.504;2023-06-24T01:49:01;15.20;99.90
73939;DHT22;62291;47.554;8.504;2023-06-24T01:51:29;15.20;99.90
73939;DHT22;62291;47.554;8.504;2023-06-24T01:54:01;15.10;99.90
73939;DHT22;62291;47.554;8.504;2023-06-24T01:56:27;15.10;99.90
73939;DHT22;62291;47.554;8.504;2023-06-24T01:58:56;15.00;99.90
73939;DHT22;62291;47.554;8.504;2023-06-24T02:01:23;14.90;99.90
73939;DHT22;62291;47.554;8.504;2023-06-24T02:03:50;14.70;99.90
73939;DHT22;62291;47.554;8.504;2023-06-24T02:06:19;14.70;99.90
73939;DHT22;62291;47.554;8.504;2023-06-24T02:08:47;14.60;99.90
73939;DHT22;62291;47.554;8.504;2023-06-24T02:11:13;14.50;99.90
73939;DHT22;62291;47.554;8.504;2023-06-24T02:13:40;14.40;99.90
73939;DHT22;62291;47.554;8.504;2023-06-24T02:16:08;14.30;99.90
73939;DHT22;62291;47.554;8.504;2023-06-24T02:18:37;14.30;99.90
73939;DHT22;62291;47.554;8.504;2023-06-24T02:21:04;14.20;99.90
73939;DHT22;62291;47.554;8.504;2023-06-24T02:23:31;14.10;99.90
73939;DHT22;62291;47.554;8.504;2023-06-24T02:26:00;14.10;99.90
73939;DHT22;62291;47.554;8.504;2023-06-24T02:28:27;14.10;99.90
73939;DHT22;62291;47.554;8.504;2023-06-24T02:30:54;14.10;99.90
73939;DHT22;62291;47.554;8.504;2023-06-24T02:33:20;14.10;99.90
73939;DHT22;62291;47.554;8.504;2023-06-24T02:35:45;14.00;99.90
73939;DHT22;62291;47.554;8.504;2023-06-24T02:38:12;14.00;99.90
73939;DHT22;62291;47.554;8.504;2023-06-24T02:40:37;14.00;99.90
73939;DHT22;62291;47.554;8.504;2023-06-24T02:43:03;14.00;99.90
73939;DHT22;62291;47.554;8.504;2023-06-24T02:45:29;14.00;99.90
73939;DHT22;62291;47.554;8.504;2023-06-24T02:47:56;14.00;99.90
73939;DHT22;62291;47.554;8.504;2023-06-24T02:50:23;13.90;99.90
73939;DHT22;62291;47.554;8.504;2023-06-24T02:52:49;13.90;99.90
73939;DHT22;62291;47.554;8.504;2023-06-24T02:55:16;13.90;99.90
73939;DHT22;62291;47.554;8.504;2023-06-24T02:57:42;13.80;99.90
73939;DHT22;62291;47.554;8.504;2023-06-24T03:00:08;13.70;99.90
73939;DHT22;62291;47.554;8.504;2023-06-24T03:02:38;13.70;99.90
73939;DHT22;62291;47.554;8.504;2023-06-24T03:05:05;13.70;99.90
73939;DHT22;62291;47.554;8.504;2023-06-24T03:07:31;13.60;99.90
73939;DHT22;62291;47.554;8.504;2023-06-24T03:10:01;13.60;99.90
73939;DHT22;62291;47.554;8.504;2023-06-24T03:12:28;13.60;99.90
73939;DHT22;62291;47.554;8.504;2023-06-24T03:14:54;13.50;99.90
73939;DHT22;62291;47.554;8.504;2023-06-24T03:17:20;13.50;99.90
73939;DHT22;62291;47.554;8.504;2023-06-24T03:19:46;13.40;99.90
73939;DHT22;62291;47.554;8.504;2023-06-24T03:22:11;13.40;99.90
73939;DHT22;62291;47.554;8.504;2023-06-24T03:24:37;13.40;99.90
73939;DHT22;62291;47.554;8.504;2023-06-24T03:27:03;13.40;99.90
73939;DHT22;62291;47.554;8.504;2023-06-24T03:29:29;13.30;99.90
73939;DHT22;62291;47.554;8.504;2023-06-24T03:31:54;13.20;99.90
73939;DHT22;62291;47.554;8.504;2023-06-24T03:34:21;13.20;99.90
73939;DHT22;62291;47.554;8.504;2023-06-24T03:36:46;13.20;99.90
73939;DHT22;62291;47.554;8.504;2023-06-24T03:39:12;13.20;99.90
73939;DHT22;62291;47.554;8.504;2023-06-24T03:41:38;13.20;99.90
73939;DHT22;62291;47.554;8.504;2023-06-24T03:44:05;13.10;99.90
73939;DHT22;62291;47.554;8.504;2023-06-24T03:46:30;13.10;99.90
73939;DHT22;62291;47.554;8.504;2023-06-24T03:48:58;13.10;99.90
73939;DHT22;62291;47.554;8.504;2023-06-24T03:51:25;13.20;99.90
73939;DHT22;62291;47.554;8.504;2023-06-24T03:53:51;13.20;99.90
73939;DHT22;62291;47.554;8.504;2023-06-24T03:56:17;13.30;99.90
73939;DHT22;62291;47.554;8.504;2023-06-24T03:58:42;13.30;99.90
73939;DHT22;62291;47.554;8.504;2023-06-24T04:01:09;13.30;99.90
73939;DHT22;62291;47.554;8.504;2023-06-24T04:03:35;13.40;99.90
73939;DHT22;62291;47.554;8.504;2023-06-24T04:06:01;13.50;99.90
73939;DHT22;62291;47.554;8.504;2023-06-24T04:08:29;13.70;99.90
73939;DHT22;62291;47.554;8.504;2023-06-24T04:10:58;14.20;99.90
73939;DHT22;62291;47.554;8.504;2023-06-24T04:13:29;14.60;99.90
73939;DHT22;62291;47.554;8.504;2023-06-24T04:15:55;15.00;99.90
73939;DHT22;62291;47.554;8.504;2023-06-24T04:18:21;15.50;99.90
73939;DHT22;62291;47.554;8.504;2023-06-24T04:20:46;15.90;99.90
73939;DHT22;62291;47.554;8.504;2023-06-24T04:23:12;16.40;99.90
73939;DHT22;62291;47.554;8.504;2023-06-24T04:25:40;17.00;99.90
73939;DHT22;62291;47.554;8.504;2023-06-24T04:28:06;17.30;99.90
73939;DHT22;62291;47.554;8.504;2023-06-24T04:30:32;17.50;99.90
73939;DHT22;62291;47.554;8.504;2023-06-24T04:32:58;17.60;99.90
73939;DHT22;62291;47.554;8.504;2023-06-24T04:35:24;17.70;99.90
73939;DHT22;62291;47.554;8.504;2023-06-24T04:37:50;17.70;99.90
73939;DHT22;62291;47.554;8.504;2023-06-24T04:40:19;17.70;99.90
73939;DHT22;62291;47.554;8.504;2023-06-24T04:42:45;18.00;99.90
73939;DHT22;62291;47.554;8.504;2023-06-24T04:45:11;18.20;99.90
73939;DHT22;62291;47.554;8.504;2023-06-24T04:47:37;18.80;99.90
73939;DHT22;62291;47.554;8.504;2023-06-24T04:50:03;18.90;99.90
73939;DHT22;62291;47.554;8.504;2023-06-24T04:52:29;19.20;99.90
73939;DHT22;62291;47.554;8.504;2023-06-24T04:54:55;19.30;99.90
73939;DHT22;62291;47.554;8.504;2023-06-24T04:57:39;19.40;99.90
73939;DHT22;62291;47.554;8.504;2023-06-24T05:00:06;19.90;99.90
73939;DHT22;62291;47.554;8.504;2023-06-24T05:02:32;20.10;99.90
73939;DHT22;62291;47.554;8.504;2023-06-24T05:04:59;19.90;99.90
73939;DHT22;62291;47.554;8.504;2023-06-24T05:07:24;20.10;99.90
73939;DHT22;62291;47.554;8.504;2023-06-24T05:09:50;20.40;99.90
73939;DHT22;62291;47.554;8.504;2023-06-24T05:12:16;20.50;99.90
73939;DHT22;62291;47.554;8.504;2023-06-24T05:14:42;20.80;99.90
73939;DHT22;62291;47.554;8.504;2023-06-24T05:17:08;21.20;99.90
73939;DHT22;62291;47.554;8.504;2023-06-24T05:19:33;21.00;99.90
73939;DHT22;62291;47.554;8.504;2023-06-24T05:21:59;20.90;99.90
73939;DHT22;62291;47.554;8.504;2023-06-24T05:24:25;21.30;99.90
73939;DHT22;62291;47.554;8.504;2023-06-24T05:26:51;21.70;99.90
73939;DHT22;62291;47.554;8.504;2023-06-24T05:29:17;21.80;99.90
73939;DHT22;62291;47.554;8.504;2023-06-24T05:31:44;22.20;99.90
73939;DHT22;62291;47.554;8.504;2023-06-24T05:34:09;22.50;99.90
73939;DHT22;62291;47.554;8.504;2023-06-24T05:36:35;22.70;99.90
73939;DHT22;62291;47.554;8.504;2023-06-24T05:39:01;22.50;99.90
73939;DHT22;62291;47.554;8.504;2023-06-24T05:41:27;22.50;99.90
73939;DHT22;62291;47.554;8.504;2023-06-24T05:44:07;22.90;99.90
73939;DHT22;62291;47.554;8.504;2023-06-24T05:46:33;22.70;99.40
73939;DHT22;62291;47.554;8.504;2023-06-24T05:48:59;22.60;98.50
73939;DHT22;62291;47.554;8.504;2023-06-24T05:51:24;22.70;98.90
73939;DHT22;62291;47.554;8.504;2023-06-24T05:53:50;23.00;98.90
73939;DHT22;62291;47.554;8.504;2023-06-24T05:56:16;23.90;99.90
73939;DHT22;62291;47.554;8.504;2023-06-24T05:58:41;23.90;97.10
73939;DHT22;62291;47.554;8.504;2023-06-24T06:01:09;24.00;96.50
73939;DHT22;62291;47.554;8.504;2023-06-24T06:03:35;24.40;94.50
73939;DHT22;62291;47.554;8.504;2023-06-24T06:06:01;25.40;93.30
73939;DHT22;62291;47.554;8.504;2023-06-24T06:08:26;25.00;91.80
73939;DHT22;62291;47.554;8.504;2023-06-24T06:10:52;24.70;92.90
73939;DHT22;62291;47.554;8.504;2023-06-24T06:13:18;24.80;93.60
73939;DHT22;62291;47.554;8.504;2023-06-24T06:15:43;25.20;92.80
73939;DHT22;62291;47.554;8.504;2023-06-24T06:18:09;24.80;90.90
73939;DHT22;62291;47.554;8.504;2023-06-24T06:20:35;24.60;92.20
73939;DHT22;62291;47.554;8.504;2023-06-24T06:23:01;24.70;91.40
73939;DHT22;62291;47.554;8.504;2023-06-24T06:25:26;25.10;92.20
73939;DHT22;62291;47.554;8.504;2023-06-24T06:27:52;25.20;91.70
73939;DHT22;62291;47.554;8.504;2023-06-24T06:30:18;25.60;91.90
73939;DHT22;62291;47.554;8.504;2023-06-24T06:32:43;25.80;91.20
73939;DHT22;62291;47.554;8.504;2023-06-24T06:35:09;26.20;91.00
73939;DHT22;62291;47.554;8.504;2023-06-24T06:37:35;25.80;88.30
73939;DHT22;62291;47.554;8.504;2023-06-24T06:40:01;25.30;88.40
73939;DHT22;62291;47.554;8.504;2023-06-24T06:42:27;25.20;89.60
73939;DHT22;62291;47.554;8.504;2023-06-24T06:44:52;25.30;88.50
73939;DHT22;62291;47.554;8.504;2023-06-24T06:47:18;25.10;88.90
73939;DHT22;62291;47.554;8.504;2023-06-24T06:49:44;25.20;88.50
73939;DHT22;62291;47.554;8.504;2023-06-24T06:52:09;25.40;89.90
73939;DHT22;62291;47.554;8.504;2023-06-24T06:54:35;25.60;88.60
73939;DHT22;62291;47.554;8.504;2023-06-24T06:57:02;25.90;88.30
73939;DHT22;62291;47.554;8.504;2023-06-24T06:59:27;25.90;90.20
73939;DHT22;62291;47.554;8.504;2023-06-24T07:01:53;26.10;88.10
73939;DHT22;62291;47.554;8.504;2023-06-24T07:04:19;26.00;88.60
73939;DHT22;62291;47.554;8.504;2023-06-24T07:06:44;26.00;87.80
73939;DHT22;62291;47.554;8.504;2023-06-24T07:09:10;26.20;89.00
73939;DHT22;62291;47.554;8.504;2023-06-24T07:11:36;27.20;88.70
73939;DHT22;62291;47.554;8.504;2023-06-24T07:14:01;27.20;83.80
73939;DHT22;62291;47.554;8.504;2023-06-24T07:16:27;27.00;87.60
73939;DHT22;62291;47.554;8.504;2023-06-24T07:18:53;27.10;87.60
73939;DHT22;62291;47.554;8.504;2023-06-24T07:21:18;27.00;85.10
73939;DHT22;62291;47.554;8.504;2023-06-24T07:23:44;26.40;84.70
73939;DHT22;62291;47.554;8.504;2023-06-24T07:26:10;26.50;86.40
73939;DHT22;62291;47.554;8.504;2023-06-24T07:28:35;27.10;87.90
73939;DHT22;62291;47.554;8.504;2023-06-24T07:31:01;26.50;82.60
73939;DHT22;62291;47.554;8.504;2023-06-24T07:33:27;26.30;87.30
73939;DHT22;62291;47.554;8.504;2023-06-24T07:35:53;26.20;88.20
73939;DHT22;62291;47.554;8.504;2023-06-24T07:38:19;26.20;85.10
73939;DHT22;62291;47.554;8.504;2023-06-24T07:40:45;26.50;90.20
73939;DHT22;62291;47.554;8.504;2023-06-24T07:43:10;26.40;84.90
73939;DHT22;62291;47.554;8.504;2023-06-24T07:45:36;26.20;85.00
73939;DHT22;62291;47.554;8.504;2023-06-24T07:48:02;26.40;86.00
73939;DHT22;62291;47.554;8.504;2023-06-24T07:50:27;26.90;89.50
73939;DHT22;62291;47.554;8.504;2023-06-24T07:52:53;27.00;83.90
73939;DHT22;62291;47.554;8.504;2023-06-24T07:55:19;26.80;82.70
73939;DHT22;62291;47.554;8.504;2023-06-24T07:57:45;26.80;84.00
73939;DHT22;62291;47.554;8.504;2023-06-24T08:00:12;26.60;85.10
73939;DHT22;62291;47.554;8.504;2023-06-24T08:02:38;27.00;87.00
73939;DHT22;62291;47.554;8.504;2023-06-24T08:05:04;27.60;83.60
73939;DHT22;62291;47.554;8.504;2023-06-24T08:07:30;27.90;83.80
73939;DHT22;62291;47.554;8.504;2023-06-24T08:09:56;27.60;79.10
73939;DHT22;62291;47.554;8.504;2023-06-24T08:12:21;27.10;81.20
73939;DHT22;62291;47.554;8.504;2023-06-24T08:14:47;27.50;81.90
73939;DHT22;62291;47.554;8.504;2023-06-24T08:17:12;27.30;81.70
73939;DHT22;62291;47.554;8.504;2023-06-24T08:19:38;26.80;84.50
73939;DHT22;62291;47.554;8.504;2023-06-24T08:22:04;27.30;81.40
73939;DHT22;62291;47.554;8.504;2023-06-24T08:24:30;27.70;82.50
73939;DHT22;62291;47.554;8.504;2023-06-24T08:26:56;27.30;83.00
73939;DHT22;62291;47.554;8.504;2023-06-24T08:29:22;27.20;81.80
73939;DHT22;62291;47.554;8.504;2023-06-24T08:31:48;27.30;81.90
73939;DHT22;62291;47.554;8.504;2023-06-24T08:34:13;27.40;83.20
73939;DHT22;62291;47.554;8.504;2023-06-24T08:36:39;27.90;82.00
73939;DHT22;62291;47.554;8.504;2023-06-24T08:39:05;28.40;80.10
73939;DHT22;62291;47.554;8.504;2023-06-24T08:41:30;29.00;77.90
73939;DHT22;62291;47.554;8.504;2023-06-24T08:43:56;28.90;78.50
73939;DHT22;62291;47.554;8.504;2023-06-24T08:46:24;29.00;80.80
73939;DHT22;62291;47.554;8.504;2023-06-24T08:51:40;28.80;78.90
73939;DHT22;62291;47.554;8.504;2023-06-24T08:54:09;28.90;76.60
73939;DHT22;62291;47.554;8.504;2023-06-24T08:56:35;28.60;77.00
73939;DHT22;62291;47.554;8.504;2023-06-24T08:59:08;27.80;78.40
73939;DHT22;62291;47.554;8.504;2023-06-24T09:01:34;27.40;80.60
73939;DHT22;62291;47.554;8.504;2023-06-24T09:04:00;28.10;80.90
73939;DHT22;62291;47.554;8.504;2023-06-24T09:06:25;28.70;76.60
73939;DHT22;62291;47.554;8.504;2023-06-24T09:08:55;29.30;76.20
73939;DHT22;62291;47.554;8.504;2023-06-24T09:11:27;29.20;75.60
73939;DHT22;62291;47.554;8.504;2023-06-24T09:14:00;29.30;76.90
73939;DHT22;62291;47.554;8.504;2023-06-24T09:16:26;29.40;72.80
73939;DHT22;62291;47.554;8.504;2023-06-24T09:18:53;28.70;74.00
73939;DHT22;62291;47.554;8.504;2023-06-24T09:21:23;28.20;76.60
73939;DHT22;62291;47.554;8.504;2023-06-24T09:23:57;27.70;75.30
73939;DHT22;62291;47.554;8.504;2023-06-24T09:26:24;28.00;75.40
73939;DHT22;62291;47.554;8.504;2023-06-24T09:28:51;28.40;74.80
73939;DHT22;62291;47.554;8.504;2023-06-24T09:31:17;29.10;75.90
73939;DHT22;62291;47.554;8.504;2023-06-24T09:33:44;29.60;73.00
73939;DHT22;62291;47.554;8.504;2023-06-24T09:36:14;29.80;74.90
73939;DHT22;62291;47.554;8.504;2023-06-24T09:38:44;29.30;76.00
73939;DHT22;62291;47.554;8.504;2023-06-24T09:41:10;28.90;72.70
73939;DHT22;62291;47.554;8.504;2023-06-24T09:43:37;28.80;71.40
73939;DHT22;62291;47.554;8.504;2023-06-24T09:46:05;28.60;74.80
73939;DHT22;62291;47.554;8.504;2023-06-24T09:48:31;28.40;74.30
73939;DHT22;62291;47.554;8.504;2023-06-24T09:50:59;28.40;75.20
73939;DHT22;62291;47.554;8.504;2023-06-24T09:53:33;28.70;73.30
73939;DHT22;62291;47.554;8.504;2023-06-24T09:56:03;29.00;72.50
73939;DHT22;62291;47.554;8.504;2023-06-24T09:58:36;29.20;70.90
73939;DHT22;62291;47.554;8.504;2023-06-24T10:01:03;28.50;68.90
73939;DHT22;62291;47.554;8.504;2023-06-24T10:03:32;28.00;69.10
73939;DHT22;62291;47.554;8.504;2023-06-24T10:06:00;27.90;70.90
73939;DHT22;62291;47.554;8.504;2023-06-24T10:08:28;27.50;70.30
73939;DHT22;62291;47.554;8.504;2023-06-24T10:10:54;27.50;72.90
73939;DHT22;62291;47.554;8.504;2023-06-24T10:13:19;27.80;72.90
73939;DHT22;62291;47.554;8.504;2023-06-24T10:15:46;28.20;70.80
73939;DHT22;62291;47.554;8.504;2023-06-24T10:20:56;27.70;72.50
73939;DHT22;62291;47.554;8.504;2023-06-24T10:23:22;27.70;70.00
73939;DHT22;62291;47.554;8.504;2023-06-24T10:25:48;27.20;70.10
73939;DHT22;62291;47.554;8.504;2023-06-24T10:28:14;27.40;74.10
73939;DHT22;62291;47.554;8.504;2023-06-24T10:30:39;27.60;74.20
73939;DHT22;62291;47.554;8.504;2023-06-24T10:33:10;27.60;72.40
73939;DHT22;62291;47.554;8.504;2023-06-24T10:35:41;27.70;75.20
73939;DHT22;62291;47.554;8.504;2023-06-24T10:38:10;27.70;69.00
73939;DHT22;62291;47.554;8.504;2023-06-24T10:40:41;27.20;71.80
73939;DHT22;62291;47.554;8.504;2023-06-24T10:43:27;27.30;68.90
73939;DHT22;62291;47.554;8.504;2023-06-24T10:45:57;27.50;69.50
73939;DHT22;62291;47.554;8.504;2023-06-24T10:48:24;27.40;69.60
73939;DHT22;62291;47.554;8.504;2023-06-24T10:50:50;27.50;70.30
73939;DHT22;62291;47.554;8.504;2023-06-24T10:53:16;27.50;71.20
73939;DHT22;62291;47.554;8.504;2023-06-24T10:55:44;27.20;66.90
73939;DHT22;62291;47.554;8.504;2023-06-24T10:58:12;26.90;69.40
73939;DHT22;62291;47.554;8.504;2023-06-24T11:00:40;26.80;69.10
73939;DHT22;62291;47.554;8.504;2023-06-24T11:03:13;27.20;68.70
73939;DHT22;62291;47.554;8.504;2023-06-24T11:05:43;27.40;70.80
73939;DHT22;62291;47.554;8.504;2023-06-24T11:08:09;27.10;65.80
73939;DHT22;62291;47.554;8.504;2023-06-24T11:10:43;26.90;67.50
73939;DHT22;62291;47.554;8.504;2023-06-24T11:13:09;27.10;69.40
73939;DHT22;62291;47.554;8.504;2023-06-24T11:15:35;26.80;69.30
73939;DHT22;62291;47.554;8.504;2023-06-24T11:18:02;26.80;69.60
73939;DHT22;62291;47.554;8.504;2023-06-24T11:20:29;27.20;71.10
73939;DHT22;62291;47.554;8.504;2023-06-24T11:22:55;27.40;72.10
73939;DHT22;62291;47.554;8.504;2023-06-24T11:25:21;27.30;69.10
73939;DHT22;62291;47.554;8.504;2023-06-24T11:27:49;27.20;68.40
73939;DHT22;62291;47.554;8.504;2023-06-24T11:30:16;26.80;70.40
73939;DHT22;62291;47.554;8.504;2023-06-24T11:32:44;27.00;70.10
73939;DHT22;62291;47.554;8.504;2023-06-24T11:35:11;27.00;70.90
73939;DHT22;62291;47.554;8.504;2023-06-24T11:37:41;27.20;70.30
73939;DHT22;62291;47.554;8.504;2023-06-24T11:40:08;27.20;71.00
73939;DHT22;62291;47.554;8.504;2023-06-24T11:42:41;27.20;70.70
73939;DHT22;62291;47.554;8.504;2023-06-24T11:45:11;27.30;72.60
73939;DHT22;62291;47.554;8.504;2023-06-24T11:47:38;27.20;71.80
73939;DHT22;62291;47.554;8.504;2023-06-24T11:50:05;27.00;75.00
73939;DHT22;62291;47.554;8.504;2023-06-24T11:52:43;26.90;71.10
73939;DHT22;62291;47.554;8.504;2023-06-24T11:55:15;26.90;73.00
73939;DHT22;62291;47.554;8.504;2023-06-24T11:57:53;26.80;73.70
73939;DHT22;62291;47.554;8.504;2023-06-24T12:00:26;26.90;73.20
73939;DHT22;62291;47.554;8.504;2023-06-24T12:02:54;27.10;71.30
73939;DHT22;62291;47.554;8.504;2023-06-24T12:05:27;27.30;74.40
73939;DHT22;62291;47.554;8.504;2023-06-24T12:08:04;27.20;74.20
73939;DHT22;62291;47.554;8.504;2023-06-24T12:10:30;27.00;74.20
73939;DHT22;62291;47.554;8.504;2023-06-24T12:12:59;27.00;71.10
73939;DHT22;62291;47.554;8.504;2023-06-24T12:15:26;27.20;75.20
73939;DHT22;62291;47.554;8.504;2023-06-24T12:17:52;27.50;71.70
73939;DHT22;62291;47.554;8.504;2023-06-24T12:20:18;27.40;71.30
73939;DHT22;62291;47.554;8.504;2023-06-24T12:22:45;27.20;70.40
73939;DHT22;62291;47.554;8.504;2023-06-24T12:25:11;26.90;72.20
73939;DHT22;62291;47.554;8.504;2023-06-24T12:27:37;26.70;71.70
73939;DHT22;62291;47.554;8.504;2023-06-24T12:30:04;26.80;74.20
73939;DHT22;62291;47.554;8.504;2023-06-24T12:32:30;27.00;74.80
73939;DHT22;62291;47.554;8.504;2023-06-24T12:34:56;27.20;74.80
73939;DHT22;62291;47.554;8.504;2023-06-24T12:37:22;27.20;72.40
73939;DHT22;62291;47.554;8.504;2023-06-24T12:39:48;27.20;72.30
73939;DHT22;62291;47.554;8.504;2023-06-24T12:42:16;27.30;71.40
73939;DHT22;62291;47.554;8.504;2023-06-24T12:44:42;27.30;72.50
73939;DHT22;62291;47.554;8.504;2023-06-24T12:47:07;27.30;72.40
73939;DHT22;62291;47.554;8.504;2023-06-24T12:49:33;27.30;70.40
73939;DHT22;62291;47.554;8.504;2023-06-24T12:51:59;27.10;77.30
73939;DHT22;62291;47.554;8.504;2023-06-24T12:54:24;26.70;74.80
73939;DHT22;62291;47.554;8.504;2023-06-24T12:56:50;26.30;70.50
73939;DHT22;62291;47.554;8.504;2023-06-24T12:59:15;26.40;74.40
73939;DHT22;62291;47.554;8.504;2023-06-24T13:01:41;26.60;76.50
73939;DHT22;62291;47.554;8.504;2023-06-24T13:04:10;26.70;72.30
73939;DHT22;62291;47.554;8.504;2023-06-24T13:06:36;26.70;76.30
73939;DHT22;62291;47.554;8.504;2023-06-24T13:09:02;26.50;72.50
73939;DHT22;62291;47.554;8.504;2023-06-24T13:11:28;26.50;71.60
73939;DHT22;62291;47.554;8.504;2023-06-24T13:13:54;26.40;71.40
73939;DHT22;62291;47.554;8.504;2023-06-24T13:16:20;26.40;73.30
73939;DHT22;62291;47.554;8.504;2023-06-24T13:18:46;26.40;72.30
73939;DHT22;62291;47.554;8.504;2023-06-24T13:21:12;26.50;72.40
73939;DHT22;62291;47.554;8.504;2023-06-24T13:23:39;26.50;74.00
73939;DHT22;62291;47.554;8.504;2023-06-24T13:26:06;26.50;71.20
73939;DHT22;62291;47.554;8.504;2023-06-24T13:28:31;26.70;72.80
73939;DHT22;62291;47.554;8.504;2023-06-24T13:30:58;26.60;73.00
73939;DHT22;62291;47.554;8.504;2023-06-24T13:33:23;26.50;72.70
73939;DHT22;62291;47.554;8.504;2023-06-24T13:35:51;26.50;72.10
73939;DHT22;62291;47.554;8.504;2023-06-24T13:38:17;26.50;71.60
73939;DHT22;62291;47.554;8.504;2023-06-24T13:40:42;26.50;71.20
73939;DHT22;62291;47.554;8.504;2023-06-24T13:43:08;26.50;71.50
73939;DHT22;62291;47.554;8.504;2023-06-24T13:45:34;26.40;70.80
73939;DHT22;62291;47.554;8.504;2023-06-24T13:48:00;26.30;74.10
73939;DHT22;62291;47.554;8.504;2023-06-24T13:50:25;26.30;69.20
73939;DHT22;62291;47.554;8.504;2023-06-24T13:52:51;26.10;67.60
73939;DHT22;62291;47.554;8.504;2023-06-24T13:55:17;26.10;72.10
73939;DHT22;62291;47.554;8.504;2023-06-24T13:57:42;26.10;75.20
73939;DHT22;62291;47.554;8.504;2023-06-24T14:00:09;26.10;68.20
73939;DHT22;62291;47.554;8.504;2023-06-24T14:02:35;26.00;72.10
73939;DHT22;62291;47.554;8.504;2023-06-24T14:05:00;26.00;72.80
73939;DHT22;62291;47.554;8.504;2023-06-24T14:07:26;26.00;70.30
73939;DHT22;62291;47.554;8.504;2023-06-24T14:09:52;26.00;69.90
73939;DHT22;62291;47.554;8.504;2023-06-24T14:12:17;26.00;69.70
73939;DHT22;62291;47.554;8.504;2023-06-24T14:14:43;26.00;70.20
73939;DHT22;62291;47.554;8.504;2023-06-24T14:17:09;25.90;69.60
73939;DHT22;62291;47.554;8.504;2023-06-24T14:19:37;25.80;67.50
73939;DHT22;62291;47.554;8.504;2023-06-24T14:22:03;25.80;74.10
73939;DHT22;62291;47.554;8.504;2023-06-24T14:24:29;25.80;69.60
73939;DHT22;62291;47.554;8.504;2023-06-24T14:26:55;25.80;71.00
73939;DHT22;62291;47.554;8.504;2023-06-24T14:29:20;25.80;68.90
73939;DHT22;62291;47.554;8.504;2023-06-24T14:31:46;25.70;68.00
73939;DHT22;62291;47.554;8.504;2023-06-24T14:34:12;25.70;69.50
73939;DHT22;62291;47.554;8.504;2023-06-24T14:36:38;25.80;68.20
73939;DHT22;62291;47.554;8.504;2023-06-24T14:39:03;25.80;67.50
73939;DHT22;62291;47.554;8.504;2023-06-24T14:41:29;25.80;69.30
73939;DHT22;62291;47.554;8.504;2023-06-24T14:43:55;25.70;66.90
73939;DHT22;62291;47.554;8.504;2023-06-24T14:46:20;25.60;66.40
73939;DHT22;62291;47.554;8.504;2023-06-24T14:48:46;25.60;68.20
73939;DHT22;62291;47.554;8.504;2023-06-24T14:51:11;25.60;65.10
73939;DHT22;62291;47.554;8.504;2023-06-24T14:53:37;25.60;67.60
73939;DHT22;62291;47.554;8.504;2023-06-24T14:56:03;25.80;66.60
73939;DHT22;62291;47.554;8.504;2023-06-24T14:58:29;25.70;66.10
73939;DHT22;62291;47.554;8.504;2023-06-24T15:00:54;25.60;70.10
73939;DHT22;62291;47.554;8.504;2023-06-24T15:03:20;25.60;65.70
73939;DHT22;62291;47.554;8.504;2023-06-24T15:05:46;25.70;68.40
73939;DHT22;62291;47.554;8.504;2023-06-24T15:08:12;25.80;67.60
73939;DHT22;62291;47.554;8.504;2023-06-24T15:10:37;25.70;67.50
73939;DHT22;62291;47.554;8.504;2023-06-24T15:13:03;25.60;69.00
73939;DHT22;62291;47.554;8.504;2023-06-24T15:15:29;25.60;66.10
73939;DHT22;62291;47.554;8.504;2023-06-24T15:17:54;25.60;64.00
73939;DHT22;62291;47.554;8.504;2023-06-24T15:20:20;25.60;68.20
73939;DHT22;62291;47.554;8.504;2023-06-24T15:22:46;25.60;66.60
73939;DHT22;62291;47.554;8.504;2023-06-24T15:25:11;25.60;67.20
73939;DHT22;62291;47.554;8.504;2023-06-24T15:27:37;25.60;64.80
73939;DHT22;62291;47.554;8.504;2023-06-24T15:30:03;25.60;65.60
73939;DHT22;62291;47.554;8.504;2023-06-24T15:32:29;25.60;68.20
73939;DHT22;62291;47.554;8.504;2023-06-24T15:34:54;25.60;70.10
73939;DHT22;62291;47.554;8.504;2023-06-24T15:37:20;25.60;63.00
73939;DHT22;62291;47.554;8.504;2023-06-24T15:39:46;25.60;64.20